sensor_id;sensor_type;location;lat;lon;timestamp;pressure;altitude;pressure_sealevel;temperature;humidity
63090;BME280;49174;43.198;27.824;2023-02-18T01:11:05;102092.13;;;1.98;90.10
63090;BME280;49174;43.198;27.824;2023-02-18T01:59:22;102071.84;;;2.21;85.26
63090;BME280;49174;43.198;27.824;2023-02-18T02:01:48;102073.44;;;2.23;85.07
63090;BME280;49174;43.198;27.824;2023-02-18T02:28:55;102055.66;;;2.11;85.82
63090;BME280;49174;43.198;27.824;2023-02-18T02:37:08;102038.44;;;2.04;85.68
63090;BME280;49174;43.198;27.824;2023-02-18T02:42:19;102040.16;;;1.92;86.08
63090;BME280;49174;43.198;27.824;2023-02-18T02:47:38;102059.66;;;1.93;87.50
63090;BME280;49174;43.198;27.824;2023-02-18T02:50:13;102055.78;;;1.97;87.79
63090;BME280;49174;43.198;27.824;2023-02-18T03:11:44;102018.97;;;2.28;85.44
63090;BME280;49174;43.198;27.824;2023-02-18T03:39:43;102007.72;;;2.48;85.66
63090;BME280;49174;43.198;27.824;2023-02-18T03:42:10;102001.97;;;2.41;85.98
63090;BME280;49174;43.198;27.824;2023-02-18T04:06:11;101995.78;;;3.35;82.16
63090;BME280;49174;43.198;27.824;2023-02-18T04:08:37;101991.03;;;3.28;83.01
63090;BME280;49174;43.198;27.824;2023-02-18T04:11:03;101987.88;;;3.34;82.48
63090;BME280;49174;43.198;27.824;2023-02-18T04:13:29;102004.00;;;3.32;82.87
63090;BME280;49174;43.198;27.824;2023-02-18T04:15:55;102008.09;;;3.25;83.17
63090;BME280;49174;43.198;27.824;2023-02-18T04:18:21;101989.34;;;3.27;83.50
63090;BME280;49174;43.198;27.824;2023-02-18T04:20:47;101981.16;;;3.17;83.81
63090;BME280;49174;43.198;27.824;2023-02-18T04:23:13;101991.00;;;3.17;84.36
63090;BME280;49174;43.198;27.824;2023-02-18T05:12:15;101933.78;;;3.88;81.33
63090;BME280;49174;43.198;27.824;2023-02-18T05:14:41;101926.97;;;3.84;82.23
63090;BME280;49174;43.198;27.824;2023-02-18T05:17:06;101929.03;;;3.80;82.56
63090;BME280;49174;43.198;27.824;2023-02-18T05:19:32;101931.22;;;3.87;82.81
63090;BME280;49174;43.198;27.824;2023-02-18T05:21:58;101933.78;;;3.88;82.43
63090;BME280;49174;43.198;27.824;2023-02-18T05:24:23;101937.63;;;3.95;82.33
63090;BME280;49174;43.198;27.824;2023-02-18T05:26:49;101932.25;;;4.07;81.42
63090;BME280;49174;43.198;27.824;2023-02-18T05:29:15;101939.53;;;4.16;81.17
63090;BME280;49174;43.198;27.824;2023-02-18T05:53:16;101947.00;;;4.65;81.32
63090;BME280;49174;43.198;27.824;2023-02-18T05:55:41;101952.69;;;4.72;82.52
63090;BME280;49174;43.198;27.824;2023-02-18T05:58:07;101938.69;;;4.80;83.93
63090;BME280;49174;43.198;27.824;2023-02-18T06:00:32;101941.66;;;4.86;84.60
63090;BME280;49174;43.198;27.824;2023-02-18T06:02:58;101935.97;;;5.01;84.94
63090;BME280;49174;43.198;27.824;2023-02-18T06:05:24;101942.09;;;5.12;84.16
63090;BME280;49174;43.198;27.824;2023-02-18T06:07:49;101939.56;;;5.11;84.58
63090;BME280;49174;43.198;27.824;2023-02-18T06:10:15;101931.84;;;5.18;83.58
63090;BME280;49174;43.198;27.824;2023-02-18T06:12:42;101933.84;;;5.15;84.28
63090;BME280;49174;43.198;27.824;2023-02-18T06:15:08;101931.00;;;5.17;83.90
63090;BME280;49174;43.198;27.824;2023-02-18T06:17:34;101934.88;;;5.24;85.12
63090;BME280;49174;43.198;27.824;2023-02-18T06:19:59;101920.22;;;5.28;84.88
63090;BME280;49174;43.198;27.824;2023-02-18T06:22:25;101924.78;;;5.37;83.08
63090;BME280;49174;43.198;27.824;2023-02-18T06:24:50;101925.41;;;5.51;82.61
63090;BME280;49174;43.198;27.824;2023-02-18T06:27:16;101923.63;;;5.61;81.11
63090;BME280;49174;43.198;27.824;2023-02-18T06:29:41;101928.41;;;5.67;81.26
63090;BME280;49174;43.198;27.824;2023-02-18T06:32:07;101924.22;;;5.74;80.12
63090;BME280;49174;43.198;27.824;2023-02-18T06:34:32;101912.41;;;5.87;79.57
63090;BME280;49174;43.198;27.824;2023-02-18T06:36:58;101903.13;;;5.91;79.22
63090;BME280;49174;43.198;27.824;2023-02-18T06:39:23;101900.88;;;5.96;78.83
63090;BME280;49174;43.198;27.824;2023-02-18T06:41:49;101901.03;;;6.04;77.16
63090;BME280;49174;43.198;27.824;2023-02-18T06:44:14;101898.41;;;6.14;77.04
63090;BME280;49174;43.198;27.824;2023-02-18T06:46:42;101902.06;;;6.22;77.66
63090;BME280;49174;43.198;27.824;2023-02-18T06:49:07;101903.06;;;6.31;78.02
63090;BME280;49174;43.198;27.824;2023-02-18T06:51:33;101901.34;;;6.40;77.60
63090;BME280;49174;43.198;27.824;2023-02-18T06:53:58;101900.94;;;6.44;76.92
63090;BME280;49174;43.198;27.824;2023-02-18T06:56:24;101903.47;;;6.56;75.31
63090;BME280;49174;43.198;27.824;2023-02-18T06:58:49;101905.16;;;6.66;74.18
63090;BME280;49174;43.198;27.824;2023-02-18T07:01:21;101904.56;;;6.82;73.13
63090;BME280;49174;43.198;27.824;2023-02-18T07:03:59;101904.41;;;6.93;71.71
63090;BME280;49174;43.198;27.824;2023-02-18T07:06:29;101907.50;;;7.08;71.17
63090;BME280;49174;43.198;27.824;2023-02-18T07:09:20;101909.16;;;7.19;72.26
63090;BME280;49174;43.198;27.824;2023-02-18T07:11:45;101913.47;;;7.30;70.98
63090;BME280;49174;43.198;27.824;2023-02-18T07:14:11;101911.47;;;7.42;70.33
63090;BME280;49174;43.198;27.824;2023-02-18T07:16:37;101905.22;;;7.51;70.29
63090;BME280;49174;43.198;27.824;2023-02-18T07:19:03;101904.78;;;7.55;68.38
63090;BME280;49174;43.198;27.824;2023-02-18T07:24:04;101906.25;;;7.68;68.52
63090;BME280;49174;43.198;27.824;2023-02-18T07:54:36;101877.84;;;8.46;65.04
63090;BME280;49174;43.198;27.824;2023-02-18T08:31:49;101841.47;;;10.71;58.20
63090;BME280;49174;43.198;27.824;2023-02-18T08:45:32;101808.59;;;11.23;55.81
63090;BME280;49174;43.198;27.824;2023-02-18T08:51:16;101820.03;;;11.33;53.48
63090;BME280;49174;43.198;27.824;2023-02-18T09:36:55;101757.06;;;14.51;40.93
63090;BME280;49174;43.198;27.824;2023-02-18T10:08:50;101733.63;;;15.19;39.11
63090;BME280;49174;43.198;27.824;2023-02-18T10:32:26;101709.13;;;15.81;38.64
63090;BME280;49174;43.198;27.824;2023-02-18T10:57:27;101689.47;;;16.19;38.90
63090;BME280;49174;43.198;27.824;2023-02-18T13:16:55;101565.63;;;16.86;42.50
63090;BME280;49174;43.198;27.824;2023-02-18T13:54:45;101563.34;;;16.25;45.02
63090;BME280;49174;43.198;27.824;2023-02-18T13:59:57;101555.78;;;16.34;45.18
63090;BME280;49174;43.198;27.824;2023-02-18T15:06:40;101570.53;;;15.26;47.03
63090;BME280;49174;43.198;27.824;2023-02-18T15:09:21;101574.50;;;15.24;47.08
63090;BME280;49174;43.198;27.824;2023-02-18T15:12:02;101575.34;;;15.31;47.16
63090;BME280;49174;43.198;27.824;2023-02-18T15:14:36;101566.78;;;15.27;47.35
63090;BME280;49174;43.198;27.824;2023-02-18T15:17:03;101575.34;;;15.11;48.45
63090;BME280;49174;43.198;27.824;2023-02-18T15:19:38;101568.22;;;15.16;47.49
63090;BME280;49174;43.198;27.824;2023-02-18T15:22:05;101563.81;;;15.15;47.73
